Time;durP1;ratioP1;P1;durP2;ratioP2;P2;SDS_P1;SDS_P2;PMS_P1;PMS_P2;Temp;Humidity;BMP_temperature;BMP_pressure;BME280_temperature;BME280_humidity;BME280_pressure;Samples;Min_cycle;Max_cycle;Signal;HPM_P1;HPM_P2
2022/05/12 00:00:55;;;;;;;;;2.00;2.00;;;;;17.64;60.22;101071.34;5053208;28;47274;-66
2022/05/12 00:03:20;;;;;;;;;3.67;2.67;;;;;17.67;59.85;101076.47;5075492;28;45417;-61
2022/05/12 00:05:46;;;;;;;;;4.33;4.00;;;;;17.69;59.48;101083.47;5072755;27;45803;-63
2022/05/12 00:08:13;;;;;;;;;2.00;2.00;;;;;17.77;59.23;101084.72;5072426;27;45437;-61
2022/05/12 00:10:40;;;;;;;;;4.33;3.00;;;;;17.75;59.50;101078.63;5070065;28;46631;-63
2022/05/12 00:13:07;;;;;;;;;3.67;3.00;;;;;17.76;59.08;101083.03;5061700;27;48540;-64
2022/05/12 00:15:35;;;;;;;;;1.33;1.33;;;;;17.75;59.09;101079.47;5073967;28;45543;-64
2022/05/12 00:18:03;;;;;;;;;3.00;2.33;;;;;17.71;59.07;101085.19;5078954;27;45542;-64
2022/05/12 00:20:31;;;;;;;;;6.00;3.00;;;;;17.61;59.16;101075.13;5049512;27;45679;-63
2022/05/12 00:23:27;;;;;;;;;6.00;4.00;;;;;17.66;59.81;101091.75;5058301;28;45730;-61
2022/05/12 00:25:53;;;;;;;;;4.67;2.00;;;;;17.66;59.04;101097.16;5059746;28;45651;-60
2022/05/12 00:28:23;;;;;;;;;2.00;2.00;;;;;17.64;59.48;101096.41;5075590;27;45482;-64
2022/05/12 00:30:50;;;;;;;;;4.00;4.00;;;;;17.64;58.66;101093.72;5064132;27;46144;-62
2022/05/12 00:33:18;;;;;;;;;6.00;4.33;;;;;17.62;59.04;101101.06;5078555;27;45353;-60
2022/05/12 00:35:45;;;;;;;;;3.67;2.00;;;;;17.55;59.65;101113.25;5063644;27;45520;-63
2022/05/12 00:38:11;;;;;;;;;4.33;3.00;;;;;17.57;59.44;101108.59;5040340;28;45630;-63
2022/05/12 00:40:42;;;;;;;;;3.00;3.00;;;;;17.57;59.49;101113.97;5063293;28;46569;-60
2022/05/12 00:43:33;;;;;;;;;5.67;4.00;;;;;17.43;59.66;101122.25;5060003;28;45486;-66
2022/05/12 00:45:58;;;;;;;;;5.00;3.00;;;;;17.44;59.58;101115.03;5070113;27;45247;-62
2022/05/12 00:48:25;;;;;;;;;2.00;2.00;;;;;17.53;59.27;101119.72;5060694;28;45628;-64
2022/05/12 00:50:50;;;;;;;;;5.33;4.00;;;;;17.57;59.04;101126.56;5075394;27;45818;-64
2022/05/12 00:53:16;;;;;;;;;5.00;3.00;;;;;17.58;59.02;101126.50;5092900;27;45255;-62
2022/05/12 00:55:44;;;;;;;;;5.00;3.00;;;;;17.58;59.21;101121.09;5075993;27;45416;-59
2022/05/12 00:58:13;;;;;;;;;7.33;5.33;;;;;17.57;58.75;101132.81;5076155;28;45484;-62
2022/05/12 01:00:39;;;;;;;;;5.00;5.00;;;;;17.45;59.66;101132.91;5069095;28;45283;-63
2022/05/12 01:03:14;;;;;;;;;4.00;4.00;;;;;17.40;59.42;101127.88;5076183;27;45247;-65
2022/05/12 01:05:40;;;;;;;;;5.00;4.00;;;;;17.34;59.75;101133.72;5063310;27;45445;-64
2022/05/12 01:08:09;;;;;;;;;5.67;4.00;;;;;17.24;59.40;101111.19;5056960;27;45565;-62
2022/05/12 01:10:36;;;;;;;;;4.67;4.67;;;;;17.27;59.57;101124.41;5068331;27;45374;-60
2022/05/12 01:13:02;;;;;;;;;6.67;3.33;;;;;17.31;58.68;101128.56;5078062;27;45523;-60
2022/05/12 01:15:27;;;;;;;;;5.33;4.00;;;;;17.35;58.52;101130.06;5075535;27;45402;-57
2022/05/12 01:18:06;;;;;;;;;4.00;4.00;;;;;17.38;58.46;101140.59;5093670;27;45316;-59
2022/05/12 01:20:33;;;;;;;;;4.67;3.33;;;;;17.32;58.36;101151.81;5059342;28;45579;-58
2022/05/12 01:23:24;;;;;;;;;4.00;2.33;;;;;17.30;58.04;101151.03;5066956;28;45366;-59
2022/05/12 01:25:55;;;;;;;;;4.00;3.00;;;;;17.24;58.74;101154.22;5038024;28;45368;-60
2022/05/12 01:28:21;;;;;;;;;4.00;4.00;;;;;17.16;58.56;101160.16;5040200;28;45653;-58
2022/05/12 01:30:47;;;;;;;;;7.00;6.00;;;;;17.08;58.71;101147.28;5066101;27;46093;-64
2022/05/12 01:33:12;;;;;;;;;4.33;3.33;;;;;17.08;58.70;101158.06;5057951;28;45393;-64
2022/05/12 01:35:38;;;;;;;;;3.33;3.33;;;;;17.10;58.41;101163.31;5068968;28;46807;-62
2022/05/12 01:38:03;;;;;;;;;6.33;5.00;;;;;17.09;58.54;101157.06;5059446;27;45520;-63
2022/05/12 01:40:29;;;;;;;;;5.00;5.00;;;;;17.12;58.76;101155.97;5092891;27;45263;-63
2022/05/12 01:42:55;;;;;;;;;6.67;5.33;;;;;17.13;58.80;101159.53;5057688;28;45446;-67
2022/05/12 01:45:21;;;;;;;;;5.00;5.00;;;;;17.11;59.26;101165.03;5059344;28;45344;-62
2022/05/12 01:47:47;;;;;;;;;4.33;3.33;;;;;17.04;59.01;101161.91;5070691;28;45747;-59
2022/05/12 01:50:14;;;;;;;;;5.00;5.00;;;;;16.99;59.96;101169.47;5077262;27;45455;-59
2022/05/12 01:52:44;;;;;;;;;6.00;6.00;;;;;16.86;59.78;101160.59;5064156;27;45453;-62
2022/05/12 01:55:12;;;;;;;;;5.00;5.00;;;;;16.90;60.40;101180.03;5056694;28;45449;-66
2022/05/12 01:57:37;;;;;;;;;4.33;4.33;;;;;16.84;60.34;101173.28;5069971;28;45518;-67
2022/05/12 02:00:06;;;;;;;;;5.33;5.33;;;;;16.85;59.89;101179.50;5063250;28;46158;-67
2022/05/12 02:02:32;;;;;;;;;6.33;5.33;;;;;16.83;59.99;101190.38;5073702;27;45386;-63
2022/05/12 02:04:57;;;;;;;;;7.00;5.00;;;;;16.80;59.26;101178.03;5061287;27;45486;-65
2022/05/12 02:07:22;;;;;;;;;4.67;4.67;;;;;16.79;58.17;101191.53;5077262;27;45438;-61
2022/05/12 02:09:48;;;;;;;;;1.33;1.33;;;;;16.76;57.59;101202.53;5075095;27;47131;-62
2022/05/12 02:12:13;;;;;;;;;4.00;4.00;;;;;16.74;57.05;101201.78;5066114;28;45602;-60
2022/05/12 02:14:39;;;;;;;;;2.00;2.00;;;;;16.74;56.75;101196.41;5074023;27;45477;-64
2022/05/12 02:17:04;;;;;;;;;2.00;2.00;;;;;16.79;56.88;101203.16;5072318;27;45364;-58
2022/05/12 02:19:30;;;;;;;;;4.00;3.00;;;;;16.82;56.58;101207.47;5056484;28;46745;-63
2022/05/12 02:21:58;;;;;;;;;3.00;2.00;;;;;16.81;56.13;101205.75;5071315;28;45786;-67
2022/05/12 02:24:23;;;;;;;;;2.67;2.67;;;;;16.72;55.98;101195.66;5076777;27;45349;-65
2022/05/12 02:26:48;;;;;;;;;2.00;2.00;;;;;16.79;55.75;101215.72;5059343;27;45667;-66
2022/05/12 02:29:14;;;;;;;;;1.00;1.00;;;;;16.75;54.89;101206.19;5052451;28;46582;-66
2022/05/12 02:31:39;;;;;;;;;1.00;1.00;;;;;16.63;55.11;101194.44;5071640;28;45590;-66
2022/05/12 02:34:05;;;;;;;;;1.67;1.67;;;;;16.57;55.15;101202.09;5059617;27;45322;-64
2022/05/12 02:36:30;;;;;;;;;2.67;1.00;;;;;16.63;55.00;101220.44;5066935;27;45591;-65
2022/05/12 02:38:56;;;;;;;;;2.00;2.00;;;;;16.66;54.74;101234.50;5056524;28;47226;-63
2022/05/12 02:41:21;;;;;;;;;1.33;1.33;;;;;16.65;54.46;101234.63;5073341;28;46541;-60
2022/05/12 02:43:47;;;;;;;;;2.00;1.00;;;;;16.61;54.90;101234.00;5062054;27;45469;-63
2022/05/12 02:46:14;;;;;;;;;1.00;1.00;;;;;16.59;54.52;101237.75;5059557;28;45734;-66
2022/05/12 02:48:45;;;;;;;;;1.00;1.00;;;;;16.59;54.69;101241.31;5076595;27;45393;-64
2022/05/12 02:51:12;;;;;;;;;1.00;1.00;;;;;16.50;55.12;101240.13;5064792;27;45470;-62
2022/05/12 02:53:37;;;;;;;;;2.67;2.00;;;;;16.42;55.83;101242.50;5054233;27;45298;-65
2022/05/12 02:56:04;;;;;;;;;1.00;1.00;;;;;16.32;56.32;101241.41;5066307;28;45616;-66
2022/05/12 02:58:30;;;;;;;;;2.00;2.00;;;;;16.31;56.56;101238.84;5076048;27;45377;-64
2022/05/12 03:00:56;;;;;;;;;7.00;1.67;;;;;16.35;56.62;101251.94;5071431;27;45337;-69
2022/05/12 03:03:22;;;;;;;;;1.00;1.00;;;;;16.33;56.62;101234.22;5061896;27;45226;-67
2022/05/12 03:05:49;;;;;;;;;3.00;2.00;;;;;16.42;56.63;101257.75;5074035;28;45525;-60
2022/05/12 03:08:15;;;;;;;;;3.00;3.00;;;;;16.30;57.15;101245.19;5070622;27;46197;-66
2022/05/12 03:10:40;;;;;;;;;6.00;2.00;;;;;16.23;56.60;101250.97;5055614;28;45525;-67
2022/05/12 03:13:06;;;;;;;;;2.33;2.00;;;;;16.21;56.97;101255.56;5058782;28;45524;-66
2022/05/12 03:15:32;;;;;;;;;2.67;1.00;;;;;16.16;57.01;101257.72;5076597;27;45304;-61
2022/05/12 03:17:58;;;;;;;;;2.67;1.00;;;;;16.05;57.48;101262.97;5073621;27;46379;-64
2022/05/12 03:20:26;;;;;;;;;3.00;1.67;;;;;16.04;57.88;101268.44;5065718;27;45561;-63
2022/05/12 03:22:51;;;;;;;;;1.00;1.00;;;;;16.04;57.65;101266.63;5059214;28;45345;-65
2022/05/12 03:25:19;;;;;;;;;2.00;2.00;;;;;16.04;58.15;101265.75;5055151;27;45687;-65
2022/05/12 03:27:45;;;;;;;;;1.67;0.00;;;;;15.87;58.15;101262.38;5055893;28;45773;-63
2022/05/12 03:30:14;;;;;;;;;2.00;2.00;;;;;15.88;58.76;101264.09;5065277;27;45424;-61
2022/05/12 03:32:40;;;;;;;;;1.00;1.00;;;;;15.90;58.66;101264.88;5052703;27;45244;-61
2022/05/12 03:35:06;;;;;;;;;1.00;1.00;;;;;15.77;58.73;101269.34;5057667;27;45634;-59
2022/05/12 03:37:32;;;;;;;;;2.00;2.00;;;;;15.72;58.46;101263.41;5070999;28;46280;-62
2022/05/12 03:39:58;;;;;;;;;3.67;3.00;;;;;15.78;58.81;101263.03;5058174;28;45528;-63
2022/05/12 03:42:24;;;;;;;;;1.00;1.00;;;;;15.75;58.37;101270.38;5054450;27;45872;-63
2022/05/12 03:44:50;;;;;;;;;1.33;1.00;;;;;15.75;58.72;101257.84;5072978;28;45578;-59
2022/05/12 03:47:21;;;;;;;;;1.33;1.33;;;;;15.73;59.07;101275.84;5074942;27;48153;-63
2022/05/12 03:49:53;;;;;;;;;1.00;1.00;;;;;15.70;58.76;101268.03;5074307;27;45254;-60
2022/05/12 03:52:20;;;;;;;;;2.00;2.00;;;;;15.61;59.21;101260.56;5079559;27;45406;-66
2022/05/12 03:54:46;;;;;;;;;2.00;2.00;;;;;15.53;59.48;101258.41;5075402;27;45562;-65
2022/05/12 03:57:14;;;;;;;;;2.67;2.00;;;;;15.58;59.43;101266.13;5044471;28;47802;-59
2022/05/12 03:59:40;;;;;;;;;4.00;1.67;;;;;15.56;59.63;101262.69;5078090;28;45471;-66
2022/05/12 04:02:08;;;;;;;;;5.00;2.00;;;;;15.52;59.39;101266.53;5077548;27;45307;-65
2022/05/12 04:04:34;;;;;;;;;5.00;2.00;;;;;15.55;59.12;101274.38;5062627;27;45613;-60
2022/05/12 04:07:00;;;;;;;;;2.00;1.00;;;;;15.53;58.99;101276.31;5058483;28;46174;-60
2022/05/12 04:09:26;;;;;;;;;4.67;2.00;;;;;15.48;59.31;101270.34;5068890;27;45321;-61
2022/05/12 04:11:52;;;;;;;;;2.00;2.00;;;;;15.45;59.01;101270.56;5080649;27;45288;-63
2022/05/12 04:14:17;;;;;;;;;2.33;1.00;;;;;15.50;58.88;101281.88;5052351;27;45632;-61
2022/05/12 04:16:44;;;;;;;;;2.67;1.00;;;;;15.49;59.05;101289.03;5063693;28;45364;-57
2022/05/12 04:19:11;;;;;;;;;3.67;2.00;;;;;15.45;59.19;101283.97;5074453;28;45432;-62
2022/05/12 04:21:37;;;;;;;;;5.67;2.33;;;;;15.40;59.73;101289.66;5078582;27;45444;-62
2022/05/12 04:24:05;;;;;;;;;2.67;2.67;;;;;15.41;59.99;101306.59;5074538;28;45430;-59
2022/05/12 04:26:32;;;;;;;;;2.00;2.00;;;;;15.34;60.11;101306.09;5077368;28;46337;-58
2022/05/12 04:28:57;;;;;;;;;1.00;1.00;;;;;15.22;60.73;101296.16;5074609;27;45428;-58
2022/05/12 04:31:22;;;;;;;;;2.00;2.00;;;;;15.17;60.98;101299.16;5076912;27;45444;-63
2022/05/12 04:36:32;;;;;;;;;4.00;2.00;;;;;15.17;61.25;101299.16;5059614;28;45509;-61
2022/05/12 04:38:59;;;;;;;;;3.67;2.67;;;;;15.02;62.03;101300.13;5054250;28;45493;-59
2022/05/12 04:41:25;;;;;;;;;3.33;2.00;;;;;14.99;61.77;101300.34;5058246;28;45440;-62
2022/05/12 04:43:51;;;;;;;;;3.00;3.00;;;;;15.15;61.30;101310.94;5061796;28;46081;-62
2022/05/12 04:46:17;;;;;;;;;2.00;2.00;;;;;15.07;61.70;101310.56;5064493;27;45436;-61
2022/05/12 04:48:43;;;;;;;;;3.00;2.00;;;;;15.08;61.46;101302.41;5057550;28;45789;-64
2022/05/12 04:51:09;;;;;;;;;3.00;3.00;;;;;15.24;60.62;101316.59;5055652;27;45341;-64
2022/05/12 04:53:34;;;;;;;;;3.67;3.00;;;;;15.22;60.33;101318.47;5048538;28;45372;-63
2022/05/12 04:56:00;;;;;;;;;4.00;2.67;;;;;15.11;60.67;101309.44;5075447;28;45405;-61
2022/05/12 04:58:26;;;;;;;;;2.00;2.00;;;;;15.16;60.61;101324.25;5070894;28;45191;-64
2022/05/12 05:00:51;;;;;;;;;3.00;1.67;;;;;15.11;60.63;101302.25;5050758;28;45556;-63
2022/05/12 05:03:17;;;;;;;;;2.67;1.00;;;;;15.23;60.55;101325.53;5054034;28;45231;-65
2022/05/12 05:05:43;;;;;;;;;5.33;3.67;;;;;15.18;60.82;101333.03;5074303;27;46558;-64
2022/05/12 05:08:13;;;;;;;;;3.33;2.00;;;;;15.19;61.09;101324.03;5057352;28;45431;-66
2022/05/12 05:10:38;;;;;;;;;3.00;3.00;;;;;15.13;61.10;101323.56;5065523;27;45576;-62
2022/05/12 05:13:03;;;;;;;;;3.00;1.33;;;;;15.15;60.63;101327.88;5057300;28;45532;-68
2022/05/12 05:15:29;;;;;;;;;5.00;3.67;;;;;15.12;60.57;101325.41;5070981;27;45397;-62
2022/05/12 05:17:55;;;;;;;;;3.67;2.00;;;;;15.06;60.20;101325.78;5071239;28;45324;-62
2022/05/12 05:20:24;;;;;;;;;2.33;2.00;;;;;15.01;61.10;101333.25;5055659;27;45481;-65
2022/05/12 05:22:49;;;;;;;;;1.00;1.00;;;;;14.98;61.07;101336.13;5068578;27;45215;-68
2022/05/12 05:25:16;;;;;;;;;3.00;2.00;;;;;14.96;61.10;101327.28;5065987;28;45270;-67
2022/05/12 05:27:44;;;;;;;;;2.33;2.00;;;;;15.01;61.92;101346.63;5070356;28;45336;-62
2022/05/12 05:30:13;;;;;;;;;4.00;3.00;;;;;15.00;61.91;101339.56;5077830;27;45750;-69
2022/05/12 05:32:39;;;;;;;;;3.00;3.00;;;;;14.99;62.42;101354.78;5072834;27;45482;-62
2022/05/12 05:35:06;;;;;;;;;4.00;4.00;;;;;14.79;62.52;101354.28;5059864;28;45806;-64
2022/05/12 05:37:31;;;;;;;;;5.00;3.67;;;;;14.81;62.71;101360.38;5050462;28;45568;-66
2022/05/12 05:39:57;;;;;;;;;2.33;2.33;;;;;14.91;62.32;101361.56;5054781;27;45556;-68
2022/05/12 05:42:22;;;;;;;;;1.00;1.00;;;;;14.97;61.72;101350.44;5056385;28;45383;-62
2022/05/12 05:44:48;;;;;;;;;4.67;4.67;;;;;14.93;61.82;101352.47;5057220;27;45975;-59
2022/05/12 05:47:14;;;;;;;;;4.67;3.00;;;;;14.96;61.93;101370.16;5059508;27;45693;-59
2022/05/12 05:49:41;;;;;;;;;5.00;3.00;;;;;14.95;62.15;101373.78;5072315;27;45236;-60
2022/05/12 05:54:52;;;;;;;;;3.00;2.00;;;;;14.91;62.16;101383.84;5064264;28;45797;-58
2022/05/12 05:57:25;;;;;;;;;3.67;3.33;;;;;14.97;61.94;101388.84;5051594;28;45343;-65
2022/05/12 05:59:52;;;;;;;;;5.33;4.00;;;;;14.99;61.33;101391.41;5070488;28;45382;-66
2022/05/12 06:02:18;;;;;;;;;2.67;2.67;;;;;15.00;61.73;101393.13;5078637;27;45876;-59
2022/05/12 06:04:43;;;;;;;;;4.67;4.00;;;;;15.00;61.38;101393.13;5054468;28;47135;-62
2022/05/12 06:07:08;;;;;;;;;11.33;3.00;;;;;15.13;61.45;101415.53;5070195;27;45517;-64
2022/05/12 06:09:34;;;;;;;;;7.67;4.00;;;;;15.16;60.66;101409.97;5056620;27;45510;-69
2022/05/12 06:12:00;;;;;;;;;8.33;2.00;;;;;15.22;60.54;101419.44;5056077;28;45673;-67
2022/05/12 06:14:26;;;;;;;;;10.33;7.33;;;;;15.20;60.16;101407.97;5057169;28;45456;-62
2022/05/12 06:16:52;;;;;;;;;8.00;4.00;;;;;15.32;59.80;101418.78;5057153;28;45383;-64
2022/05/12 06:19:20;;;;;;;;;4.67;3.00;;;;;15.32;59.96;101425.94;5046372;28;45677;-63
2022/05/12 06:21:45;;;;;;;;;4.00;3.00;;;;;15.28;59.98;101427.09;5063890;28;45440;-64
2022/05/12 06:24:11;;;;;;;;;4.67;3.00;;;;;15.35;59.98;101434.66;5076500;28;45709;-65
2022/05/12 06:26:36;;;;;;;;;4.00;4.00;;;;;15.34;59.88;101427.56;5076466;27;45216;-62
2022/05/12 06:29:01;;;;;;;;;5.00;4.00;;;;;15.41;59.59;101432.56;5076896;28;45207;-64
2022/05/12 06:31:30;;;;;;;;;3.33;3.33;;;;;15.39;59.84;101421.94;5077458;27;45435;-60
2022/05/12 06:33:57;;;;;;;;;6.67;4.00;;;;;15.45;59.45;101413.50;5060945;28;46460;-66
2022/05/12 06:36:23;;;;;;;;;3.00;3.00;;;;;15.42;59.50;101431.59;5072388;28;45476;-59
2022/05/12 06:38:50;;;;;;;;;4.00;2.33;;;;;15.39;59.49;101421.94;5051517;28;45275;-59
2022/05/12 06:41:16;;;;;;;;;7.00;4.00;;;;;15.35;59.42;101415.88;5065339;27;45343;-65
2022/05/12 06:43:45;;;;;;;;;4.00;3.00;;;;;15.35;59.56;101423.94;5072083;28;45821;-66
2022/05/12 06:46:12;;;;;;;;;6.33;3.33;;;;;15.53;58.73;101447.88;5073984;28;45315;-64
2022/05/12 06:48:38;;;;;;;;;5.33;3.00;;;;;15.57;58.71;101438.66;5074896;27;45468;-61
2022/05/12 06:51:04;;;;;;;;;3.67;2.33;;;;;15.69;58.28;101440.59;5075362;27;45639;-62
2022/05/12 06:53:30;;;;;;;;;3.00;3.00;;;;;15.63;57.85;101441.00;5074654;27;46630;-61
2022/05/12 06:55:55;;;;;;;;;6.00;3.00;;;;;15.69;57.49;101450.47;5070049;27;45619;-62
2022/05/12 06:58:21;;;;;;;;;2.67;2.67;;;;;15.75;57.64;101445.56;5046064;28;45596;-63
2022/05/12 07:00:47;;;;;;;;;7.33;3.00;;;;;15.82;57.76;101440.69;5075205;28;45319;-62
2022/05/12 07:03:13;;;;;;;;;6.00;5.00;;;;;15.88;57.38;101440.28;5073477;27;48156;-65
2022/05/12 07:05:40;;;;;;;;;5.33;4.00;;;;;15.88;57.10;101437.59;5075882;28;45633;-63
2022/05/12 07:08:06;;;;;;;;;4.00;4.00;;;;;15.89;56.94;101442.03;5044131;27;45429;-60
2022/05/12 07:10:33;;;;;;;;;4.33;3.67;;;;;16.00;56.36;101441.31;5052107;27;45671;-62
2022/05/12 07:12:58;;;;;;;;;7.00;4.67;;;;;16.10;55.91;101445.97;5047188;28;45713;-61
2022/05/12 07:15:27;;;;;;;;;4.33;3.00;;;;;16.03;55.67;101427.72;5045989;28;45423;-65
2022/05/12 07:17:55;;;;;;;;;3.00;3.00;;;;;16.19;55.33;101444.50;5053082;28;45271;-62
2022/05/12 07:28:36;;;;;;;;;11.00;8.67;;;;;16.34;54.91;101438.13;5077947;28;45370;-63
2022/05/12 07:31:03;;;;;;;;;3.00;3.00;;;;;16.30;53.78;101443.81;5078336;27;45729;-63
2022/05/12 07:33:57;;;;;;;;;10.00;6.00;;;;;16.35;54.15;101444.34;5064721;27;46183;-62
2022/05/12 07:36:26;;;;;;;;;2.67;2.67;;;;;16.25;52.79;101441.41;5049305;28;45350;-59
2022/05/12 07:38:52;;;;;;;;;6.00;3.33;;;;;16.21;52.46;101440.75;5079631;27;45345;-60
2022/05/12 07:41:19;;;;;;;;;4.33;3.00;;;;;16.33;52.91;101440.91;5077957;28;45628;-61
2022/05/12 07:43:46;;;;;;;;;6.00;4.00;;;;;16.37;52.57;101440.59;5077487;27;47592;-59
2022/05/12 07:46:15;;;;;;;;;4.00;3.00;;;;;16.51;52.31;101445.91;5094666;27;45305;-63
2022/05/12 07:48:41;;;;;;;;;5.00;2.00;;;;;16.58;52.54;101442.81;5079083;27;45260;-62
2022/05/12 07:51:08;;;;;;;;;8.33;4.33;;;;;16.61;52.07;101442.59;5095315;27;45272;-61
2022/05/12 07:53:34;;;;;;;;;3.00;3.00;;;;;16.61;52.91;101439.91;5049313;27;45552;-59
2022/05/12 07:56:03;;;;;;;;;4.67;4.67;;;;;16.69;51.82;101445.69;5072901;28;45421;-60
2022/05/12 07:58:29;;;;;;;;;10.00;10.00;;;;;16.69;51.93;101448.34;5079384;27;45231;-64
2022/05/12 08:00:55;;;;;;;;;8.00;7.00;;;;;16.71;52.42;101441.91;5079139;27;45228;-59
2022/05/12 08:03:22;;;;;;;;;4.00;4.00;;;;;16.70;51.98;101429.44;5078836;27;45358;-63
2022/05/12 08:05:48;;;;;;;;;3.00;3.00;;;;;16.73;51.64;101439.13;5065657;27;45524;-60
2022/05/12 08:08:13;;;;;;;;;3.67;3.33;;;;;16.88;51.38;101442.56;5058847;28;45504;-61
2022/05/12 08:10:39;;;;;;;;;2.33;2.33;;;;;17.15;50.90;101434.41;5053192;28;45326;-60
2022/05/12 08:13:04;;;;;;;;;3.00;3.00;;;;;17.59;50.04;101437.50;5060849;27;45519;-64
2022/05/12 08:15:31;;;;;;;;;2.00;1.00;;;;;17.77;49.45;101432.66;5077754;27;45350;-59
2022/05/12 08:17:57;;;;;;;;;4.00;4.00;;;;;18.19;47.24;101438.53;5079244;27;45432;-62
2022/05/12 08:20:24;;;;;;;;;3.67;2.00;;;;;18.42;47.53;101440.34;5077838;28;45488;-60
2022/05/12 08:22:49;;;;;;;;;2.67;2.00;;;;;18.61;47.10;101452.41;5078365;27;45381;-61
2022/05/12 08:25:16;;;;;;;;;3.67;1.67;;;;;18.67;47.75;101439.38;5078288;27;45510;-64
2022/05/12 08:27:42;;;;;;;;;3.00;3.00;;;;;19.02;46.82;101449.28;5078828;27;45422;-61
2022/05/12 08:30:11;;;;;;;;;5.00;3.33;;;;;19.20;45.89;101442.44;5046158;27;45399;-62
2022/05/12 08:32:37;;;;;;;;;4.00;2.33;;;;;19.51;45.09;101434.59;5069577;28;46236;-60
2022/05/12 08:35:04;;;;;;;;;3.00;3.00;;;;;19.88;43.17;101443.31;5057977;28;45417;-62
2022/05/12 08:37:30;;;;;;;;;6.67;3.00;;;;;20.11;44.36;101442.28;5058710;28;45378;-60
2022/05/12 08:39:56;;;;;;;;;2.67;2.33;;;;;20.51;43.86;101447.97;5058283;28;45648;-61
2022/05/12 08:42:36;;;;;;;;;4.67;3.00;;;;;20.85;42.68;101450.50;5057214;28;46781;-61
2022/05/12 08:45:06;;;;;;;;;2.00;2.00;;;;;21.04;42.50;101438.94;5074166;28;45370;-63
2022/05/12 08:47:35;;;;;;;;;4.00;4.00;;;;;21.32;41.65;101438.28;5045359;28;45346;-59
2022/05/12 08:50:01;;;;;;;;;3.00;3.00;;;;;21.68;41.49;101438.72;5071068;28;45527;-60
2022/05/12 08:52:33;;;;;;;;;3.67;3.00;;;;;22.12;39.21;101437.44;5077990;27;45318;-65
2022/05/12 08:55:25;;;;;;;;;3.75;2.50;;;;;22.28;40.81;101436.91;5076923;27;45301;-58
2022/05/12 08:57:58;;;;;;;;;3.00;1.00;;;;;22.42;39.13;101435.63;5093945;27;45323;-60
2022/05/12 09:00:26;;;;;;;;;6.67;4.00;;;;;22.56;40.08;101427.91;5078286;27;45346;-62
2022/05/12 09:02:54;;;;;;;;;4.00;2.75;;;;;22.80;39.53;101427.47;5093675;27;47469;-65
2022/05/12 09:05:26;;;;;;;;;4.00;2.00;;;;;23.14;38.60;101424.28;5057301;28;45521;-62
2022/05/12 09:08:26;;;;;;;;;2.75;2.75;;;;;23.54;38.63;101422.13;5062109;28;45413;-63
2022/05/12 09:11:04;;;;;;;;;3.00;1.75;;;;;23.91;37.18;101414.97;5049664;28;45499;-62
2022/05/12 09:13:33;;;;;;;;;3.00;2.00;;;;;24.24;36.42;101421.63;5055782;28;46091;-59
2022/05/12 09:16:31;;;;;;;;;2.75;2.00;;;;;24.41;36.58;101426.22;5077916;27;45445;-60
2022/05/12 09:18:58;;;;;;;;;2.00;2.00;;;;;24.29;37.58;101427.44;5033071;28;45422;-60
2022/05/12 09:21:27;;;;;;;;;3.75;2.75;;;;;24.05;36.30;101437.03;5077825;28;45484;-60
2022/05/12 09:23:53;;;;;;;;;2.00;2.00;;;;;24.01;37.01;101430.19;5059339;28;45398;-60
2022/05/12 09:26:39;;;;;;;;;3.50;3.00;;;;;23.91;36.72;101429.41;5076212;27;45431;-63
2022/05/12 09:29:13;;;;;;;;;1.00;1.00;;;;;23.98;35.54;101432.38;5077692;27;45354;-57
2022/05/12 09:31:40;;;;;;;;;4.25;2.25;;;;;23.85;37.01;101429.16;5044525;28;45323;-61
2022/05/12 09:34:27;;;;;;;;;6.25;2.50;;;;;23.65;37.36;101433.84;5074262;27;46741;-59
2022/05/12 09:36:53;;;;;;;;;3.00;2.00;;;;;23.45;36.68;101427.63;5056377;28;45343;-58
2022/05/12 09:39:39;;;;;;;;;1.00;1.00;;;;;23.28;37.80;101415.66;5057394;28;45402;-64
2022/05/12 09:42:38;;;;;;;;;2.75;2.75;;;;;23.01;36.04;101429.16;5057652;28;45364;-60
2022/05/12 09:45:08;;;;;;;;;2.25;2.25;;;;;22.69;37.13;101418.63;5057365;28;46600;-66
2022/05/12 09:47:34;;;;;;;;;5.50;3.50;;;;;22.80;37.44;101424.75;5056708;28;45397;-65
2022/05/12 09:50:16;;;;;;;;;3.50;2.25;;;;;23.03;36.92;101419.03;5043479;28;45309;-62
2022/05/12 09:53:06;;;;;;;;;2.25;2.25;;;;;23.20;37.13;101413.69;5052050;27;45550;-62
2022/05/12 09:55:36;;;;;;;;;3.00;2.00;;;;;23.34;36.99;101416.94;5064081;28;46451;-61
2022/05/12 09:58:25;;;;;;;;;1.50;1.50;;;;;23.31;36.71;101398.22;5075970;27;45481;-59
2022/05/12 10:01:18;;;;;;;;;3.50;2.00;;;;;23.51;36.83;101417.00;5077296;27;45385;-60
2022/05/12 10:09:28;;;;;;;;;2.00;2.00;;;;;23.76;35.65;101403.75;5077238;28;45361;-62
2022/05/12 10:12:02;;;;;;;;;1.75;1.00;;;;;23.93;35.41;101405.66;5070168;27;45655;-60
2022/05/12 10:14:40;;;;;;;;;2.00;2.00;;;;;23.89;33.52;101404.25;5054435;28;45632;-57
2022/05/12 10:17:33;;;;;;;;;2.00;2.00;;;;;23.29;34.57;101411.09;5057190;28;45379;-61
2022/05/12 10:20:14;;;;;;;;;2.00;2.00;;;;;23.15;35.96;101396.13;5055356;28;45549;-59
2022/05/12 10:22:54;;;;;;;;;4.75;2.50;;;;;23.22;36.01;101389.13;5056371;28;45460;-60
2022/05/12 10:25:47;;;;;;;;;1.50;1.00;;;;;23.16;35.37;101387.84;5057006;28;45405;-64
2022/05/12 10:28:23;;;;;;;;;1.00;1.00;;;;;22.94;36.41;101397.22;5066234;28;45450;-57
2022/05/12 10:30:49;;;;;;;;;1.00;1.00;;;;;22.99;35.66;101396.75;5076648;27;45347;-59
2022/05/12 10:33:32;;;;;;;;;2.25;1.25;;;;;23.01;36.58;101391.19;5066249;27;45515;-58
2022/05/12 10:36:23;;;;;;;;;2.75;2.75;;;;;22.91;36.66;101392.06;5056553;28;45255;-59
2022/05/12 10:39:09;;;;;;;;;5.00;3.50;;;;;22.67;36.42;101395.25;5055705;28;45416;-63
2022/05/12 10:41:46;;;;;;;;;2.50;2.50;;;;;22.62;36.92;101400.22;5056534;28;45226;-62
2022/05/12 10:44:22;;;;;;;;;5.00;3.00;;;;;22.68;37.46;101396.09;5049576;28;45692;-63
2022/05/12 10:47:10;;;;;;;;;3.00;3.00;;;;;22.74;37.43;101400.06;5091815;27;45651;-62
2022/05/12 10:50:06;;;;;;;;;4.75;3.75;;;;;22.63;37.49;101392.94;5076955;28;45466;-61
2022/05/12 10:52:56;;;;;;;;;3.25;2.00;;;;;22.61;37.01;101392.22;5075534;27;45457;-59
2022/05/12 10:55:34;;;;;;;;;1.75;1.75;;;;;22.66;37.65;101389.97;5092015;27;45348;-61
2022/05/12 10:58:40;;;;;;;;;4.00;3.00;;;;;22.57;37.82;101382.69;5069876;28;45468;-62
2022/05/12 11:01:26;;;;;;;;;2.00;2.00;;;;;22.58;37.83;101384.41;5036185;28;46152;-62
2022/05/12 11:03:59;;;;;;;;;3.50;3.00;;;;;22.60;37.88;101393.22;5035728;28;45372;-60
2022/05/12 11:06:33;;;;;;;;;1.00;1.00;;;;;22.46;37.32;101385.53;5038675;28;45603;-61
2022/05/12 11:09:10;;;;;;;;;1.75;1.75;;;;;22.43;37.51;101385.84;5081158;27;45514;-62
2022/05/12 11:11:45;;;;;;;;;2.00;2.00;;;;;22.36;38.13;101375.56;5076513;28;46807;-61
2022/05/12 11:14:21;;;;;;;;;3.00;2.00;;;;;22.22;37.98;101380.56;5091873;27;45742;-61
2022/05/12 11:16:49;;;;;;;;;1.00;1.00;;;;;22.11;38.32;101394.22;5076112;27;45473;-62
2022/05/12 11:19:20;;;;;;;;;2.33;2.33;;;;;22.04;38.41;101396.63;5058627;27;45465;-60
2022/05/12 11:22:24;;;;;;;;;4.75;2.00;;;;;21.96;38.38;101382.91;5062417;28;45925;-59
2022/05/12 11:25:00;;;;;;;;;2.00;2.00;;;;;22.10;38.72;101378.97;5053709;28;45399;-59
2022/05/12 11:27:33;;;;;;;;;4.00;2.00;;;;;22.35;38.33;101378.41;5039027;28;45556;-60
2022/05/12 11:30:36;;;;;;;;;2.75;2.00;;;;;22.57;37.48;101382.69;5051781;28;45654;-60
2022/05/12 11:33:08;;;;;;;;;1.25;1.25;;;;;22.69;37.57;101380.69;5067402;27;45274;-59
2022/05/12 11:35:49;;;;;;;;;6.75;2.75;;;;;22.71;36.44;101378.66;5056010;28;45343;-60
2022/05/12 11:38:48;;;;;;;;;2.00;2.00;;;;;22.71;37.26;101384.94;5055852;27;45449;-62
2022/05/12 11:41:19;;;;;;;;;1.50;1.00;;;;;22.75;37.44;101374.66;5042154;28;45377;-62
2022/05/12 11:46:55;;;;;;;;;3.25;2.00;;;;;22.57;37.06;101382.69;5052813;28;45381;-63
2022/05/12 11:49:46;;;;;;;;;3.00;3.00;;;;;22.55;37.40;101379.28;5061539;28;45230;-61
2022/05/12 11:52:17;;;;;;;;;3.00;1.75;;;;;22.49;37.50;101387.97;5065188;28;45717;-58
2022/05/12 11:54:56;;;;;;;;;3.00;2.00;;;;;22.40;37.16;101384.28;5060882;28;46655;-61
2022/05/12 11:57:38;;;;;;;;;3.00;3.00;;;;;22.40;38.02;101386.09;5053221;27;45465;-60
2022/05/12 12:00:10;;;;;;;;;5.50;2.50;;;;;22.38;37.75;101394.38;5035366;28;45390;-65